createdAt,value
2022-10-28T00:00:30.529Z,1017.30
2022-10-28T00:01:30.592Z,1017.31
2022-10-28T00:02:30.570Z,1017.27
2022-10-28T00:03:30.535Z,1017.22
2022-10-28T00:05:30.521Z,1017.22
2022-10-28T00:06:30.513Z,1017.23
2022-10-28T00:07:30.540Z,1017.19
2022-10-28T00:08:30.507Z,1017.19
2022-10-28T00:09:30.532Z,1017.31
2022-10-28T00:10:30.504Z,1017.25
2022-10-28T00:11:30.504Z,1017.19
2022-10-28T00:12:30.497Z,1017.26
2022-10-28T00:13:30.487Z,1017.28
2022-10-28T00:14:30.494Z,1017.27
2022-10-28T00:15:30.547Z,1017.32
2022-10-28T00:16:30.488Z,1017.30
2022-10-28T00:17:30.487Z,1017.33
2022-10-28T00:18:30.485Z,1017.36
2022-10-28T00:19:30.477Z,1017.30
2022-10-28T00:20:30.492Z,1017.31
2022-10-28T00:21:30.494Z,1017.30
2022-10-28T00:22:30.484Z,1017.32
2022-10-28T00:23:30.468Z,1017.36
2022-10-28T00:24:30.493Z,1017.33
2022-10-28T00:25:30.460Z,1017.34
2022-10-28T00:26:30.454Z,1017.32
2022-10-28T00:27:30.466Z,1017.34
2022-10-28T00:28:30.466Z,1017.37
2022-10-28T00:29:30.468Z,1017.36
2022-10-28T00:31:30.470Z,1017.33
2022-10-28T00:32:30.468Z,1017.31
2022-10-28T00:33:30.444Z,1017.24
2022-10-28T00:34:30.448Z,1017.25
2022-10-28T00:35:30.456Z,1017.28
2022-10-28T00:36:30.440Z,1017.28
2022-10-28T00:37:30.424Z,1017.28
2022-10-28T00:38:30.430Z,1017.30
2022-10-28T00:39:30.431Z,1017.30
2022-10-28T00:40:30.427Z,1017.34
2022-10-28T00:41:30.422Z,1017.34
2022-10-28T00:42:30.417Z,1017.31
2022-10-28T00:43:30.432Z,1017.27
2022-10-28T00:44:30.431Z,1017.24
2022-10-28T00:45:30.416Z,1017.24
2022-10-28T00:46:30.420Z,1017.27
2022-10-28T00:47:30.403Z,1017.25
2022-10-28T00:48:30.435Z,1017.23
2022-10-28T00:49:30.393Z,1017.21
2022-10-28T00:50:30.396Z,1017.23
2022-10-28T00:51:30.406Z,1017.26
2022-10-28T00:52:30.393Z,1017.22
2022-10-28T00:53:30.395Z,1017.24
2022-10-28T00:54:30.511Z,1017.16
2022-10-28T00:55:30.415Z,1017.14
2022-10-28T00:56:30.382Z,1017.17
2022-10-28T00:57:30.388Z,1017.17
2022-10-28T00:58:30.401Z,1017.15
2022-10-28T00:59:30.374Z,1017.13
2022-10-28T01:00:30.367Z,1017.15
2022-10-28T01:01:30.440Z,1017.13
2022-10-28T01:02:30.389Z,1017.09
2022-10-28T01:03:30.371Z,1017.16
2022-10-28T01:04:30.364Z,1017.18
2022-10-28T01:05:30.360Z,1017.17
2022-10-28T01:06:30.369Z,1017.13
2022-10-28T01:07:30.358Z,1017.12
2022-10-28T01:08:30.351Z,1017.12
2022-10-28T01:09:30.348Z,1017.12
2022-10-28T01:10:30.342Z,1017.07
2022-10-28T01:11:30.346Z,1017.09
2022-10-28T01:12:30.396Z,1017.08
2022-10-28T01:13:30.342Z,1017.11
2022-10-28T01:14:30.335Z,1017.10
2022-10-28T01:15:30.361Z,1017.10
2022-10-28T01:16:30.336Z,1017.09
2022-10-28T01:17:30.329Z,1017.09
2022-10-28T01:18:30.336Z,1017.11
2022-10-28T01:19:30.412Z,1017.14
2022-10-28T01:20:30.318Z,1017.14
2022-10-28T01:21:30.320Z,1017.10
2022-10-28T01:23:30.318Z,1017.06
2022-10-28T01:24:30.318Z,1017.09
2022-10-28T01:25:30.322Z,1017.06
2022-10-28T01:26:30.303Z,1017.03
2022-10-28T01:27:30.301Z,1017.02
2022-10-28T01:28:30.303Z,1017.03
2022-10-28T01:29:30.307Z,1017.06
2022-10-28T01:30:30.301Z,1017.01
2022-10-28T01:31:30.293Z,1016.98
2022-10-28T01:32:30.295Z,1016.95
2022-10-28T01:33:30.292Z,1016.91
2022-10-28T01:34:30.293Z,1016.93
2022-10-28T01:36:30.283Z,1016.93
2022-10-28T01:37:30.294Z,1016.89
2022-10-28T01:38:30.283Z,1016.91
2022-10-28T01:39:30.277Z,1016.90
2022-10-28T01:40:30.278Z,1016.86
2022-10-28T01:41:30.260Z,1016.86
2022-10-28T01:42:30.258Z,1016.86
2022-10-28T01:43:30.271Z,1016.82
2022-10-28T01:44:30.267Z,1016.82
2022-10-28T01:45:30.258Z,1016.80
2022-10-28T01:46:30.258Z,1016.75
2022-10-28T01:47:30.263Z,1016.78
2022-10-28T01:48:30.308Z,1016.78
2022-10-28T01:49:30.280Z,1016.78
2022-10-28T01:50:30.250Z,1016.80
2022-10-28T01:51:30.245Z,1016.78
2022-10-28T01:52:30.302Z,1016.80
2022-10-28T01:53:30.258Z,1016.84
2022-10-28T01:54:30.237Z,1016.85
2022-10-28T01:55:30.230Z,1016.83
2022-10-28T01:56:30.268Z,1016.83
2022-10-28T01:57:30.229Z,1016.82
2022-10-28T01:58:30.221Z,1016.77
2022-10-28T01:59:30.219Z,1016.78
2022-10-28T02:00:30.323Z,1016.75
2022-10-28T02:01:30.463Z,1016.75
2022-10-28T02:02:30.238Z,1016.73
2022-10-28T02:03:30.208Z,1016.72
2022-10-28T02:04:30.209Z,1016.78
2022-10-28T02:05:30.201Z,1016.72
2022-10-28T02:06:30.212Z,1016.76
2022-10-28T02:07:30.215Z,1016.69
2022-10-28T02:08:30.196Z,1016.70
2022-10-28T02:09:30.199Z,1016.70
2022-10-28T02:10:30.192Z,1016.66
2022-10-28T02:11:30.197Z,1016.62
2022-10-28T02:12:30.193Z,1016.58
2022-10-28T02:13:30.180Z,1016.64
2022-10-28T02:14:30.179Z,1016.64
2022-10-28T02:15:30.196Z,1016.61
2022-10-28T02:16:30.179Z,1016.65
2022-10-28T02:17:30.178Z,1016.62
2022-10-28T02:18:30.197Z,1016.59
2022-10-28T02:19:30.168Z,1016.62
2022-10-28T02:20:30.172Z,1016.61
2022-10-28T02:21:30.157Z,1016.64
2022-10-28T02:22:30.166Z,1016.63
2022-10-28T02:23:30.165Z,1016.63
2022-10-28T02:24:30.153Z,1016.64
2022-10-28T02:25:30.156Z,1016.62
2022-10-28T02:26:30.147Z,1016.67
2022-10-28T02:27:30.147Z,1016.61
2022-10-28T02:28:30.175Z,1016.66
2022-10-28T02:29:30.147Z,1016.66
2022-10-28T02:30:30.137Z,1016.72
2022-10-28T02:31:30.163Z,1016.62
2022-10-28T02:32:30.201Z,1016.64
2022-10-28T02:33:30.137Z,1016.62
2022-10-28T02:34:30.136Z,1016.70
2022-10-28T02:35:30.135Z,1016.70
2022-10-28T02:36:30.119Z,1016.67
2022-10-28T02:37:30.117Z,1016.72
2022-10-28T02:38:30.121Z,1016.76
2022-10-28T02:39:30.119Z,1016.77
2022-10-28T02:40:30.111Z,1016.80
2022-10-28T02:41:30.113Z,1016.75
2022-10-28T02:42:30.105Z,1016.73
2022-10-28T02:43:30.119Z,1016.73
2022-10-28T02:44:30.106Z,1016.70
2022-10-28T02:45:30.096Z,1016.68
2022-10-28T02:46:30.090Z,1016.71
2022-10-28T02:47:30.096Z,1016.67
2022-10-28T02:48:30.081Z,1016.68
2022-10-28T02:49:30.089Z,1016.66
2022-10-28T02:50:30.088Z,1016.65
2022-10-28T02:51:30.080Z,1016.61
2022-10-28T02:52:30.074Z,1016.57
2022-10-28T02:53:30.073Z,1016.56
2022-10-28T02:54:30.079Z,1016.57
2022-10-28T02:55:30.073Z,1016.54
2022-10-28T02:56:30.064Z,1016.57
2022-10-28T02:57:30.055Z,1016.58
2022-10-28T02:58:30.060Z,1016.58
2022-10-28T02:59:30.056Z,1016.59
2022-10-28T03:00:30.051Z,1016.65
2022-10-28T03:01:30.253Z,1016.64
2022-10-28T03:02:30.041Z,1016.69
2022-10-28T03:03:30.050Z,1016.69
2022-10-28T03:04:30.054Z,1016.69
2022-10-28T03:05:30.051Z,1016.68
2022-10-28T03:06:30.060Z,1016.68
2022-10-28T03:07:30.059Z,1016.69
2022-10-28T03:08:30.039Z,1016.69
2022-10-28T03:09:30.025Z,1016.65
2022-10-28T03:10:30.027Z,1016.62
2022-10-28T03:11:30.024Z,1016.65
2022-10-28T03:12:30.034Z,1016.61
2022-10-28T03:13:30.020Z,1016.65
2022-10-28T03:14:30.011Z,1016.63
2022-10-28T03:15:30.019Z,1016.65
2022-10-28T03:16:30.008Z,1016.61
2022-10-28T03:17:30.019Z,1016.61
2022-10-28T03:18:30.037Z,1016.62
2022-10-28T03:19:30.006Z,1016.60
2022-10-28T03:20:29.998Z,1016.61
2022-10-28T03:21:30.002Z,1016.57
2022-10-28T03:22:30.009Z,1016.55
2022-10-28T03:23:30.016Z,1016.54
2022-10-28T03:24:29.985Z,1016.58
2022-10-28T03:25:29.995Z,1016.55
2022-10-28T03:26:29.986Z,1016.55
2022-10-28T03:27:29.977Z,1016.48
2022-10-28T03:28:29.985Z,1016.53
2022-10-28T03:29:29.971Z,1016.46
2022-10-28T03:30:29.981Z,1016.49
2022-10-28T03:31:29.969Z,1016.47
2022-10-28T03:32:29.990Z,1016.45
2022-10-28T03:33:29.965Z,1016.48
2022-10-28T03:34:29.977Z,1016.48
2022-10-28T03:35:29.978Z,1016.46
2022-10-28T03:36:30.053Z,1016.50
2022-10-28T03:37:29.967Z,1016.48
2022-10-28T03:38:29.948Z,1016.46
2022-10-28T03:39:29.946Z,1016.53
2022-10-28T03:40:29.939Z,1016.49
2022-10-28T03:41:29.938Z,1016.53
2022-10-28T03:42:29.941Z,1016.54
2022-10-28T03:43:29.945Z,1016.58
2022-10-28T03:44:29.932Z,1016.60
2022-10-28T03:46:32.294Z,1016.62
2022-10-28T03:47:29.928Z,1016.61
2022-10-28T03:48:29.938Z,1016.59
2022-10-28T03:49:29.916Z,1016.64
2022-10-28T03:50:29.918Z,1016.68
2022-10-28T03:51:29.917Z,1016.68
2022-10-28T03:52:29.914Z,1016.70
2022-10-28T03:53:31.502Z,1016.64
2022-10-28T03:54:29.902Z,1016.65
2022-10-28T03:55:29.966Z,1016.62
2022-10-28T03:56:29.892Z,1016.65
2022-10-28T03:57:29.906Z,1016.63
2022-10-28T03:58:29.962Z,1016.58
2022-10-28T03:59:29.882Z,1016.56
2022-10-28T04:00:29.902Z,1016.57
2022-10-28T04:01:29.958Z,1016.57
2022-10-28T04:02:29.931Z,1016.56
2022-10-28T04:03:29.890Z,1016.54
2022-10-28T04:04:30.739Z,1016.52
2022-10-28T04:05:29.886Z,1016.53
2022-10-28T04:06:29.869Z,1016.54
2022-10-28T04:07:29.863Z,1016.50
2022-10-28T04:08:29.863Z,1016.50
2022-10-28T04:09:29.863Z,1016.45
2022-10-28T04:10:29.966Z,1016.41
2022-10-28T04:11:29.856Z,1016.42
2022-10-28T04:12:29.845Z,1016.42
2022-10-28T04:13:29.879Z,1016.41
2022-10-28T04:14:29.847Z,1016.47
2022-10-28T04:15:29.855Z,1016.47
2022-10-28T04:16:29.841Z,1016.50
2022-10-28T04:17:29.832Z,1016.43
2022-10-28T04:18:29.830Z,1016.43
2022-10-28T04:19:29.826Z,1016.45
2022-10-28T04:20:29.816Z,1016.44
2022-10-28T04:21:29.817Z,1016.46
2022-10-28T04:22:29.818Z,1016.45
2022-10-28T04:23:29.818Z,1016.47
2022-10-28T04:24:29.815Z,1016.51
2022-10-28T04:25:29.830Z,1016.57
2022-10-28T04:26:29.819Z,1016.51
2022-10-28T04:27:29.818Z,1016.50
2022-10-28T04:28:29.811Z,1016.51
2022-10-28T04:29:29.805Z,1016.51
2022-10-28T04:30:29.789Z,1016.48
2022-10-28T04:31:29.792Z,1016.48
2022-10-28T04:32:29.788Z,1016.48
2022-10-28T04:33:29.787Z,1016.40
2022-10-28T04:34:29.803Z,1016.38
2022-10-28T04:35:29.781Z,1016.37
2022-10-28T04:36:29.783Z,1016.36
2022-10-28T04:37:29.773Z,1016.37
2022-10-28T04:38:29.787Z,1016.35
2022-10-28T04:39:29.794Z,1016.34
2022-10-28T04:40:29.779Z,1016.33
2022-10-28T04:41:29.760Z,1016.33
2022-10-28T04:42:29.753Z,1016.35
2022-10-28T04:43:29.753Z,1016.36
2022-10-28T04:44:29.753Z,1016.36
2022-10-28T04:45:29.759Z,1016.38
2022-10-28T04:46:29.788Z,1016.39
2022-10-28T04:47:29.749Z,1016.38
2022-10-28T04:48:29.739Z,1016.38
2022-10-28T04:49:29.784Z,1016.35
2022-10-28T04:50:29.750Z,1016.33
2022-10-28T04:51:29.732Z,1016.31
2022-10-28T04:52:29.728Z,1016.32
2022-10-28T04:53:29.723Z,1016.33
2022-10-28T04:54:29.738Z,1016.33
2022-10-28T04:55:29.723Z,1016.31
2022-10-28T04:56:29.742Z,1016.30
2022-10-28T04:57:29.767Z,1016.29
2022-10-28T04:58:29.708Z,1016.28
2022-10-28T04:59:29.716Z,1016.31
2022-10-28T05:00:29.724Z,1016.28
2022-10-28T05:01:29.817Z,1016.28
2022-10-28T05:02:29.746Z,1016.25
2022-10-28T05:03:29.707Z,1016.25
2022-10-28T05:04:29.697Z,1016.26
2022-10-28T05:05:29.783Z,1016.31
2022-10-28T05:06:29.689Z,1016.32
2022-10-28T05:07:29.706Z,1016.32
2022-10-28T05:08:29.747Z,1016.33
2022-10-28T05:09:29.682Z,1016.30
2022-10-28T05:10:29.687Z,1016.28
2022-10-28T05:11:29.683Z,1016.21
2022-10-28T05:12:29.667Z,1016.26
2022-10-28T05:13:29.710Z,1016.25
2022-10-28T05:14:29.671Z,1016.25
2022-10-28T05:15:29.669Z,1016.26
2022-10-28T05:16:29.680Z,1016.29
2022-10-28T05:17:29.660Z,1016.34
2022-10-28T05:18:29.669Z,1016.37
2022-10-28T05:19:29.663Z,1016.38
2022-10-28T05:20:29.638Z,1016.40
2022-10-28T05:21:29.637Z,1016.30
2022-10-28T05:22:29.640Z,1016.33
2022-10-28T05:23:30.830Z,1016.32
2022-10-28T05:24:29.638Z,1016.31
2022-10-28T05:25:29.639Z,1016.30
2022-10-28T05:26:29.633Z,1016.22
2022-10-28T05:27:29.641Z,1016.15
2022-10-28T05:28:29.620Z,1016.14
2022-10-28T05:29:33.151Z,1016.14
2022-10-28T05:30:29.602Z,1016.11
2022-10-28T05:31:29.603Z,1016.07
2022-10-28T05:32:29.614Z,1016.12
2022-10-28T05:33:29.600Z,1016.15
2022-10-28T05:34:29.671Z,1016.12
2022-10-28T05:35:29.597Z,1016.13
2022-10-28T05:36:29.599Z,1016.16
2022-10-28T05:37:29.657Z,1016.16
2022-10-28T05:38:29.597Z,1016.13
2022-10-28T05:39:29.590Z,1016.16
2022-10-28T05:40:29.702Z,1016.17
2022-10-28T05:41:29.580Z,1016.16
2022-10-28T05:42:29.570Z,1016.16
2022-10-28T05:43:29.566Z,1016.14
2022-10-28T05:44:29.589Z,1016.15
2022-10-28T05:46:29.584Z,1016.09
2022-10-28T05:47:29.558Z,1016.09
2022-10-28T05:48:29.588Z,1016.10
2022-10-28T05:49:29.582Z,1016.11
2022-10-28T05:50:29.554Z,1016.12
2022-10-28T05:51:29.551Z,1016.15
2022-10-28T05:52:29.541Z,1016.06
2022-10-28T05:53:29.536Z,1016.05
2022-10-28T05:54:29.531Z,1016.05
2022-10-28T05:55:29.555Z,1016.04
2022-10-28T05:56:29.527Z,1016.02
2022-10-28T05:57:29.529Z,1016.05
2022-10-28T05:58:29.528Z,1016.10
2022-10-28T05:59:29.524Z,1016.16
2022-10-28T06:00:29.511Z,1016.12
2022-10-28T06:01:29.606Z,1016.14
2022-10-28T06:02:29.518Z,1016.12
2022-10-28T06:03:31.196Z,1016.16
2022-10-28T06:04:29.505Z,1016.16
2022-10-28T06:05:29.494Z,1016.16
2022-10-28T06:06:29.501Z,1016.15
2022-10-28T06:07:29.496Z,1016.14
2022-10-28T06:08:29.505Z,1016.09
2022-10-28T06:09:29.509Z,1016.06
2022-10-28T06:10:29.490Z,1016.07
2022-10-28T06:11:27.942Z,1016.02
2022-10-28T06:12:27.984Z,1016.03
2022-10-28T06:13:27.934Z,1016.04
2022-10-28T06:14:27.942Z,1016.02
2022-10-28T06:15:27.943Z,1016.03
2022-10-28T06:16:27.960Z,1016.05
2022-10-28T06:17:27.931Z,1016.05
2022-10-28T06:18:27.947Z,1016.04
2022-10-28T06:19:27.955Z,1016.13
2022-10-28T06:20:27.959Z,1016.11
2022-10-28T06:21:27.920Z,1016.09
2022-10-28T06:22:27.918Z,1016.11
2022-10-28T06:23:27.918Z,1016.07
2022-10-28T06:24:27.920Z,1016.09
2022-10-28T06:25:27.922Z,1016.09
2022-10-28T06:26:27.908Z,1016.01
2022-10-28T06:27:27.918Z,1016.00
2022-10-28T06:28:27.923Z,1015.97
2022-10-28T06:29:27.906Z,1015.98
2022-10-28T06:30:27.897Z,1015.99
2022-10-28T06:31:27.902Z,1016.00
2022-10-28T06:32:27.893Z,1016.01
2022-10-28T06:33:28.073Z,1016.02
2022-10-28T06:34:27.886Z,1016.03
2022-10-28T06:35:27.926Z,1015.99
2022-10-28T06:36:27.906Z,1016.01
2022-10-28T06:37:27.894Z,1016.01
2022-10-28T06:38:27.896Z,1016.01
2022-10-28T06:39:28.015Z,1015.97
2022-10-28T06:40:27.878Z,1015.97
2022-10-28T06:41:27.898Z,1015.99
2022-10-28T06:42:27.877Z,1015.91
2022-10-28T06:43:27.880Z,1015.90
2022-10-28T06:44:27.883Z,1015.91
2022-10-28T06:45:27.879Z,1015.87
2022-10-28T06:46:27.867Z,1015.89
2022-10-28T06:47:29.393Z,1015.90
2022-10-28T06:48:29.394Z,1015.88
2022-10-28T06:49:29.387Z,1015.88
2022-10-28T06:50:29.374Z,1015.90
2022-10-28T06:51:29.429Z,1015.94
2022-10-28T06:52:29.387Z,1015.93
2022-10-28T06:53:29.391Z,1015.96
2022-10-28T06:54:29.371Z,1016.00
2022-10-28T06:55:29.360Z,1016.06
2022-10-28T06:56:29.365Z,1016.06
2022-10-28T06:57:29.500Z,1016.02
2022-10-28T06:58:29.403Z,1016.01
2022-10-28T06:59:29.366Z,1015.99
2022-10-28T07:00:29.367Z,1015.99
2022-10-28T07:01:29.426Z,1016.01
2022-10-28T07:02:29.441Z,1016.04
2022-10-28T07:03:29.380Z,1016.03
2022-10-28T07:04:29.407Z,1016.03
2022-10-28T07:05:29.353Z,1016.05
2022-10-28T07:06:29.349Z,1016.03
2022-10-28T07:07:29.369Z,1016.07
2022-10-28T07:08:29.342Z,1016.09
2022-10-28T07:09:29.394Z,1016.04
2022-10-28T07:10:29.387Z,1016.11
2022-10-28T07:11:29.339Z,1016.13
2022-10-28T07:12:29.350Z,1016.17
2022-10-28T07:13:29.381Z,1016.24
2022-10-28T07:14:29.347Z,1016.23
2022-10-28T07:15:29.333Z,1016.24
2022-10-28T07:16:29.328Z,1016.21
2022-10-28T07:17:29.326Z,1016.18
2022-10-28T07:18:29.335Z,1016.15
2022-10-28T07:19:29.325Z,1016.20
2022-10-28T07:20:29.322Z,1016.19
2022-10-28T07:21:29.335Z,1016.18
2022-10-28T07:22:29.374Z,1016.18
2022-10-28T07:23:29.314Z,1016.19
2022-10-28T07:24:29.375Z,1016.16
2022-10-28T07:25:29.308Z,1016.15
2022-10-28T07:26:29.308Z,1016.22
2022-10-28T07:27:29.332Z,1016.22
2022-10-28T07:28:29.337Z,1016.19
2022-10-28T07:29:29.302Z,1016.21
2022-10-28T07:30:29.304Z,1016.18
2022-10-28T07:31:29.304Z,1016.21
2022-10-28T07:32:29.378Z,1016.24
2022-10-28T07:33:29.302Z,1016.32
2022-10-28T07:34:29.305Z,1016.30
2022-10-28T07:35:29.356Z,1016.25
2022-10-28T07:36:29.315Z,1016.18
2022-10-28T07:37:29.298Z,1016.14
2022-10-28T07:38:29.296Z,1016.06
2022-10-28T07:39:29.346Z,1016.06
2022-10-28T07:40:29.286Z,1016.05
2022-10-28T07:41:29.288Z,1016.05
2022-10-28T07:42:29.305Z,1016.02
2022-10-28T07:43:29.299Z,1016.01
2022-10-28T07:44:29.292Z,1016.03
2022-10-28T07:45:29.291Z,1016.03
2022-10-28T07:46:29.274Z,1016.03
2022-10-28T07:47:29.276Z,1016.02
2022-10-28T07:48:29.294Z,1016.01
2022-10-28T07:49:29.283Z,1016.06
2022-10-28T07:50:29.282Z,1016.03
2022-10-28T07:51:29.266Z,1016.05
2022-10-28T07:52:29.269Z,1016.13
2022-10-28T07:53:29.281Z,1016.10
2022-10-28T07:54:29.258Z,1016.07
2022-10-28T07:55:29.311Z,1016.12
2022-10-28T07:56:29.289Z,1016.11
2022-10-28T07:57:29.260Z,1016.14
2022-10-28T07:58:29.257Z,1016.09
2022-10-28T07:59:29.277Z,1016.07
2022-10-28T08:00:29.282Z,1016.05
2022-10-28T08:01:29.384Z,1016.03
2022-10-28T08:02:29.287Z,1016.05
2022-10-28T08:03:34.657Z,1016.01
2022-10-28T08:04:29.276Z,1016.07
2022-10-28T08:05:29.274Z,1016.06
2022-10-28T08:06:29.272Z,1016.05
2022-10-28T08:07:29.252Z,1016.07
2022-10-28T08:08:29.254Z,1016.07
2022-10-28T08:09:29.258Z,1016.18
2022-10-28T08:10:29.247Z,1016.16
2022-10-28T08:11:29.257Z,1016.19
2022-10-28T08:12:29.271Z,1016.18
2022-10-28T08:13:29.249Z,1016.26
2022-10-28T08:14:29.263Z,1016.29
2022-10-28T08:15:29.245Z,1016.21
2022-10-28T08:16:29.265Z,1016.22
2022-10-28T08:17:29.240Z,1016.20
2022-10-28T08:18:29.283Z,1016.25
2022-10-28T08:19:29.255Z,1016.37
2022-10-28T08:20:29.248Z,1016.47
2022-10-28T08:21:29.243Z,1016.49
2022-10-28T08:22:29.246Z,1016.53
2022-10-28T08:23:29.246Z,1016.53
2022-10-28T08:24:29.249Z,1016.41
2022-10-28T08:25:29.248Z,1016.37
2022-10-28T08:26:29.252Z,1016.31
2022-10-28T08:27:29.252Z,1016.30
2022-10-28T08:28:29.255Z,1016.31
2022-10-28T08:29:30.145Z,1016.36
2022-10-28T08:30:36.539Z,1016.38
2022-10-28T08:31:29.254Z,1016.39
2022-10-28T08:32:29.281Z,1016.31
2022-10-28T08:33:29.259Z,1016.35
2022-10-28T08:34:29.701Z,1016.43
2022-10-28T08:35:29.349Z,1016.42
2022-10-28T08:36:29.287Z,1016.45
2022-10-28T08:37:29.318Z,1016.46
2022-10-28T08:38:29.275Z,1016.42
2022-10-28T08:39:29.273Z,1016.46
2022-10-28T08:40:29.278Z,1016.41
2022-10-28T08:41:29.297Z,1016.39
2022-10-28T08:42:29.303Z,1016.35
2022-10-28T08:43:40.255Z,1016.41
2022-10-28T08:44:29.291Z,1016.39
2022-10-28T08:45:29.292Z,1016.20
2022-10-28T08:46:29.307Z,1016.18
2022-10-28T08:47:29.302Z,1016.15
2022-10-28T08:48:29.308Z,1016.16
2022-10-28T08:49:29.343Z,1016.20
2022-10-28T08:50:29.309Z,1016.11
2022-10-28T08:51:29.335Z,1016.13
2022-10-28T08:52:29.333Z,1016.10
2022-10-28T08:53:29.321Z,1016.11
2022-10-28T08:54:29.323Z,1016.11
2022-10-28T08:55:29.319Z,1016.15
2022-10-28T08:56:29.324Z,1016.15
2022-10-28T08:57:29.333Z,1016.16
2022-10-28T08:58:29.334Z,1016.14
2022-10-28T08:59:29.334Z,1016.13
2022-10-28T09:00:29.329Z,1016.18
2022-10-28T09:01:29.580Z,1016.18
2022-10-28T09:02:29.357Z,1016.25
2022-10-28T09:03:29.334Z,1016.29
2022-10-28T09:04:29.327Z,1016.35
2022-10-28T09:05:29.335Z,1016.35
2022-10-28T09:06:29.335Z,1016.34
2022-10-28T09:07:29.333Z,1016.40
2022-10-28T09:08:29.344Z,1016.42
2022-10-28T09:09:29.350Z,1016.31
2022-10-28T09:10:29.346Z,1016.39
2022-10-28T09:11:29.340Z,1016.41
2022-10-28T09:12:29.339Z,1016.42
2022-10-28T09:13:29.337Z,1016.36
2022-10-28T09:14:29.365Z,1016.37
2022-10-28T09:15:29.405Z,1016.32
2022-10-28T09:16:29.345Z,1016.23
2022-10-28T09:17:29.342Z,1016.16
2022-10-28T09:18:29.348Z,1016.19
2022-10-28T09:19:29.361Z,1016.17
2022-10-28T09:20:29.385Z,1016.18
2022-10-28T09:21:29.340Z,1016.14
2022-10-28T09:22:29.355Z,1016.15
2022-10-28T09:23:29.353Z,1016.14
2022-10-28T09:24:29.355Z,1016.13
2022-10-28T09:25:29.347Z,1016.11
2022-10-28T09:26:29.357Z,1016.10
2022-10-28T09:27:29.358Z,1016.10
2022-10-28T09:28:29.348Z,1016.07
2022-10-28T09:29:29.397Z,1016.12
2022-10-28T09:30:29.360Z,1016.12
2022-10-28T09:31:29.347Z,1016.05
2022-10-28T09:32:29.348Z,1016.06
2022-10-28T09:33:29.347Z,1016.06
2022-10-28T09:34:29.415Z,1016.08
2022-10-28T09:35:29.357Z,1016.04
2022-10-28T09:36:29.358Z,1016.05
2022-10-28T09:37:29.368Z,1016.07
2022-10-28T09:38:29.360Z,1016.08
2022-10-28T09:39:29.360Z,1016.11
2022-10-28T09:40:29.354Z,1016.12
2022-10-28T09:41:29.355Z,1016.08
2022-10-28T09:42:29.432Z,1016.02
2022-10-28T09:43:29.360Z,1015.97
2022-10-28T09:44:29.359Z,1015.97
2022-10-28T09:45:29.368Z,1015.98
2022-10-28T09:46:33.217Z,1016.00
2022-10-28T09:47:29.440Z,1015.96
2022-10-28T09:48:29.404Z,1015.98
2022-10-28T09:49:29.352Z,1016.01
2022-10-28T09:50:29.374Z,1015.97
2022-10-28T09:51:29.359Z,1016.01
2022-10-28T09:52:29.376Z,1016.03
2022-10-28T09:53:33.719Z,1016.02
2022-10-28T09:54:29.395Z,1016.00
2022-10-28T09:55:29.368Z,1016.00
2022-10-28T09:56:29.371Z,1015.93
2022-10-28T09:57:29.373Z,1015.97
2022-10-28T09:58:29.477Z,1015.97
2022-10-28T09:59:29.364Z,1015.95
2022-10-28T10:00:29.399Z,1015.94
2022-10-28T10:01:29.441Z,1015.94
2022-10-28T10:02:29.443Z,1015.98
2022-10-28T10:03:29.419Z,1015.94
2022-10-28T10:04:29.377Z,1015.92
2022-10-28T10:05:29.389Z,1015.95
2022-10-28T10:06:29.376Z,1015.89
2022-10-28T10:07:29.375Z,1015.90
2022-10-28T10:08:29.381Z,1015.90
2022-10-28T10:09:29.375Z,1015.84
2022-10-28T10:10:29.386Z,1015.86
2022-10-28T10:11:29.381Z,1015.87
2022-10-28T10:12:29.375Z,1015.87
2022-10-28T10:13:29.409Z,1015.90
2022-10-28T10:14:29.388Z,1015.91
2022-10-28T10:15:29.388Z,1015.87
2022-10-28T10:16:29.381Z,1015.91
2022-10-28T10:17:29.399Z,1015.85
2022-10-28T10:18:29.393Z,1015.84
2022-10-28T10:19:29.384Z,1015.86
2022-10-28T10:20:29.389Z,1015.82
2022-10-28T10:21:29.381Z,1015.80
2022-10-28T10:22:29.386Z,1015.78
2022-10-28T10:23:29.416Z,1015.78
2022-10-28T10:24:29.392Z,1015.70
2022-10-28T10:25:29.389Z,1015.74
2022-10-28T10:26:29.389Z,1015.75
2022-10-28T10:27:29.389Z,1015.75
2022-10-28T10:28:29.403Z,1015.73
2022-10-28T10:29:29.391Z,1015.76
2022-10-28T10:30:29.397Z,1015.70
2022-10-28T10:31:29.396Z,1015.70
2022-10-28T10:32:29.403Z,1015.70
2022-10-28T10:33:29.397Z,1015.68
2022-10-28T10:34:29.412Z,1015.64
2022-10-28T10:35:29.409Z,1015.63
2022-10-28T10:36:29.395Z,1015.63
2022-10-28T10:37:29.470Z,1015.64
2022-10-28T10:38:29.402Z,1015.58
2022-10-28T10:39:29.437Z,1015.58
2022-10-28T10:40:29.416Z,1015.53
2022-10-28T10:41:29.439Z,1015.55
2022-10-28T10:42:29.414Z,1015.53
2022-10-28T10:43:29.417Z,1015.54
2022-10-28T10:44:29.421Z,1015.51
2022-10-28T10:45:29.411Z,1015.56
2022-10-28T10:46:29.416Z,1015.53
2022-10-28T10:47:29.423Z,1015.49
2022-10-28T10:48:29.453Z,1015.49
2022-10-28T10:49:29.423Z,1015.47
2022-10-28T10:50:29.415Z,1015.47
2022-10-28T10:51:29.446Z,1015.44
2022-10-28T10:52:29.445Z,1015.47
2022-10-28T10:53:29.406Z,1015.44
2022-10-28T10:54:29.414Z,1015.41
2022-10-28T10:55:29.427Z,1015.44
2022-10-28T10:56:29.450Z,1015.43
2022-10-28T10:57:29.462Z,1015.36
2022-10-28T10:58:29.442Z,1015.29
2022-10-28T10:59:29.423Z,1015.31
2022-10-28T11:00:29.448Z,1015.33
2022-10-28T11:01:29.545Z,1015.26
2022-10-28T11:02:29.512Z,1015.27
2022-10-28T11:03:29.430Z,1015.22
2022-10-28T11:04:29.422Z,1015.27
2022-10-28T11:05:37.734Z,1015.27
2022-10-28T11:06:29.430Z,1015.22
2022-10-28T11:07:29.430Z,1015.22
2022-10-28T11:08:29.437Z,1015.26
2022-10-28T11:09:29.423Z,1015.17
2022-10-28T11:10:29.426Z,1015.18
2022-10-28T11:11:29.431Z,1015.13
2022-10-28T11:12:29.433Z,1015.14
2022-10-28T11:13:29.439Z,1015.13
2022-10-28T11:14:29.433Z,1015.17
2022-10-28T11:15:29.429Z,1015.14
2022-10-28T11:16:29.426Z,1015.17
2022-10-28T11:17:29.485Z,1015.16
2022-10-28T11:18:29.435Z,1015.19
2022-10-28T11:19:29.436Z,1015.23
2022-10-28T11:20:29.430Z,1015.17
2022-10-28T11:21:29.436Z,1015.25
2022-10-28T11:22:29.436Z,1015.20
2022-10-28T11:23:29.457Z,1015.17
2022-10-28T11:24:29.456Z,1015.15
2022-10-28T11:25:29.440Z,1015.16
2022-10-28T11:26:29.449Z,1015.13
2022-10-28T11:27:29.443Z,1015.11
2022-10-28T11:28:29.449Z,1015.16
2022-10-28T11:29:29.458Z,1015.11
2022-10-28T11:30:29.453Z,1015.12
2022-10-28T11:31:29.447Z,1015.14
2022-10-28T11:32:29.444Z,1015.16
2022-10-28T11:33:30.810Z,1015.10
2022-10-28T11:34:29.502Z,1015.14
2022-10-28T11:35:29.445Z,1015.08
2022-10-28T11:36:29.465Z,1015.15
2022-10-28T11:37:29.458Z,1015.16
2022-10-28T11:38:29.458Z,1015.09
2022-10-28T11:39:29.454Z,1015.11
2022-10-28T11:40:29.467Z,1015.09
2022-10-28T11:41:29.475Z,1015.12
2022-10-28T11:42:29.456Z,1015.05
2022-10-28T11:43:29.490Z,1015.06
2022-10-28T11:44:29.548Z,1015.03
2022-10-28T11:45:29.462Z,1015.00
2022-10-28T11:46:29.463Z,1015.05
2022-10-28T11:47:29.475Z,1014.96
2022-10-28T11:48:29.471Z,1014.95
2022-10-28T11:49:29.471Z,1014.94
2022-10-28T11:50:29.524Z,1014.93
2022-10-28T11:51:29.477Z,1014.93
2022-10-28T11:52:29.472Z,1014.95
2022-10-28T11:53:29.482Z,1014.89
2022-10-28T11:54:29.479Z,1014.92
2022-10-28T11:55:29.476Z,1014.91
2022-10-28T11:56:29.469Z,1014.92
2022-10-28T11:57:29.481Z,1014.90
2022-10-28T11:58:29.482Z,1014.89
2022-10-28T11:59:29.500Z,1014.88
2022-10-28T12:00:29.479Z,1014.88
2022-10-28T12:01:29.540Z,1014.91
2022-10-28T12:02:29.610Z,1014.93
2022-10-28T12:03:29.512Z,1014.94
2022-10-28T12:04:29.550Z,1014.91
2022-10-28T12:05:29.725Z,1014.93
2022-10-28T12:06:29.512Z,1014.90
2022-10-28T12:07:29.490Z,1014.90
2022-10-28T12:08:29.580Z,1014.89
2022-10-28T12:09:29.493Z,1014.88
2022-10-28T12:10:29.506Z,1014.92
2022-10-28T12:11:29.493Z,1014.92